Time;durP1;ratioP1;P1;durP2;ratioP2;P2;SDS_P1;SDS_P2;PMS_P1;PMS_P2;Temp;Humidity;BMP_temperature;BMP_pressure;BME280_temperature;BME280_humidity;BME280_pressure;Samples;Min_cycle;Max_cycle;Signal;HPM_P1;HPM_P2
2021/07/13 00:00:48;;;;;;;13.93;12.63;;;19.50;92.00;;;;;;5073842;28;20178;-83
2021/07/13 00:03:13;;;;;;;20.67;13.18;;;19.40;92.10;;;;;;5073774;28;20516;-83
2021/07/13 00:05:40;;;;;;;17.50;13.00;;;19.40;92.30;;;;;;5073683;28;20231;-82
2021/07/13 00:08:06;;;;;;;16.13;12.45;;;19.30;92.30;;;;;;5073847;28;20183;-82
2021/07/13 00:10:40;;;;;;;21.38;14.00;;;19.20;92.40;;;;;;5074042;28;20608;-81
2021/07/13 00:13:06;;;;;;;18.98;13.65;;;19.20;92.40;;;;;;5073727;28;20164;-83
2021/07/13 00:15:37;;;;;;;19.83;14.70;;;19.10;92.50;;;;;;5073693;28;20270;-83
2021/07/13 00:18:04;;;;;;;21.88;14.32;;;19.10;92.70;;;;;;5074085;28;20523;-83
2021/07/13 00:20:32;;;;;;;17.15;14.35;;;19.10;92.80;;;;;;5074090;28;20171;-83
2021/07/13 00:22:58;;;;;;;17.65;14.35;;;19.10;92.80;;;;;;5072433;28;20643;-83
2021/07/13 00:25:26;;;;;;;23.10;15.30;;;19.10;92.60;;;;;;5071696;28;20634;-83
2021/07/13 00:27:52;;;;;;;17.75;15.32;;;19.00;92.60;;;;;;5072222;28;20182;-84
2021/07/13 00:30:19;;;;;;;18.23;14.77;;;19.00;92.70;;;;;;5073408;28;20558;-84
2021/07/13 00:32:46;;;;;;;20.95;14.63;;;19.10;92.80;;;;;;5073702;28;20631;-84
2021/07/13 00:35:11;;;;;;;21.63;15.02;;;19.20;92.90;;;;;;5073291;28;20275;-84
2021/07/13 00:37:38;;;;;;;19.52;14.82;;;19.10;92.90;;;;;;5073542;28;20163;-83
2021/07/13 00:40:05;;;;;;;18.15;14.15;;;19.10;92.90;;;;;;5072029;28;20175;-84
2021/07/13 00:42:31;;;;;;;20.85;15.90;;;19.10;93.00;;;;;;5073231;28;20171;-83
2021/07/13 00:44:57;;;;;;;18.02;15.32;;;19.10;93.10;;;;;;5073267;28;20262;-84
2021/07/13 00:47:26;;;;;;;28.23;15.82;;;19.10;93.10;;;;;;5073216;28;20178;-84
2021/07/13 00:49:52;;;;;;;28.00;16.55;;;19.10;93.20;;;;;;5071897;28;20281;-84
2021/07/13 00:52:19;;;;;;;23.65;17.38;;;19.20;93.20;;;;;;5073156;28;20274;-84
2021/07/13 00:54:47;;;;;;;26.50;17.33;;;19.20;93.30;;;;;;5088502;28;20202;-84
2021/07/13 00:57:13;;;;;;;24.85;17.27;;;19.20;93.30;;;;;;5072045;28;20198;-84
2021/07/13 00:59:40;;;;;;;22.75;16.85;;;19.20;93.40;;;;;;5073131;28;20167;-83
2021/07/13 01:02:11;;;;;;;21.70;16.42;;;19.30;93.40;;;;;;5071869;28;20274;-83
2021/07/13 01:05:00;;;;;;;31.38;19.58;;;19.30;93.40;;;;;;5073259;28;20203;-83
2021/07/13 01:07:51;;;;;;;19.73;17.38;;;19.30;93.40;;;;;;5073224;28;20164;-84
2021/07/13 01:10:49;;;;;;;24.95;18.27;;;19.40;93.60;;;;;;5073206;28;20191;-83
2021/07/13 01:13:59;;;;;;;31.23;18.60;;;19.40;93.70;;;;;;5071828;28;20164;-83
2021/07/13 01:16:39;;;;;;;28.23;18.23;;;19.40;93.70;;;;;;5009972;28;20183;-83
2021/07/13 01:19:10;;;;;;;30.77;19.35;;;19.40;93.80;;;;;;5073277;28;20151;-84
2021/07/13 01:21:55;;;;;;;27.65;18.42;;;19.50;93.90;;;;;;5073220;28;20175;-83
2021/07/13 01:24:36;;;;;;;28.38;19.98;;;19.60;93.90;;;;;;5071676;28;20237;-83
2021/07/13 01:27:26;;;;;;;30.38;20.15;;;19.50;93.80;;;;;;5072942;28;20577;-83
2021/07/13 01:29:53;;;;;;;25.30;18.88;;;19.60;93.80;;;;;;5073107;28;20188;-83
2021/07/13 01:32:26;;;;;;;30.95;18.83;;;19.60;93.70;;;;;;5071538;28;20588;-83
2021/07/13 01:35:01;;;;;;;34.58;18.85;;;19.60;93.70;;;;;;5073498;28;20198;-83
2021/07/13 01:37:27;;;;;;;25.15;19.40;;;19.60;93.70;;;;;;5074128;28;20170;-84
2021/07/13 01:39:55;;;;;;;27.63;18.38;;;19.70;93.70;;;;;;5076077;28;20183;-83
2021/07/13 01:42:21;;;;;;;25.13;18.05;;;19.70;93.70;;;;;;5075205;28;20175;-83
2021/07/13 01:44:51;;;;;;;24.55;18.58;;;19.70;93.70;;;;;;5076351;28;20183;-84
2021/07/13 01:47:17;;;;;;;28.10;18.50;;;19.70;93.70;;;;;;5075138;28;20176;-83
2021/07/13 01:49:45;;;;;;;38.58;17.58;;;19.60;93.70;;;;;;5075039;28;20207;-83
2021/07/13 01:52:11;;;;;;;29.33;17.63;;;19.60;93.70;;;;;;5076273;28;20549;-83
2021/07/13 01:54:39;;;;;;;31.65;18.05;;;19.60;93.70;;;;;;5157402;22;20625;-85
2021/07/13 01:57:06;;;;;;;36.72;18.13;;;19.60;93.70;;;;;;5056185;28;20191;-86
2021/07/13 01:59:32;;;;;;;33.35;18.33;;;19.60;93.80;;;;;;5054963;28;20172;-85
2021/07/13 02:02:01;;;;;;;30.27;19.27;;;19.60;93.70;;;;;;5056114;28;20175;-85
2021/07/13 02:04:29;;;;;;;25.40;18.30;;;19.50;93.70;;;;;;5038175;28;20203;-85
2021/07/13 02:07:00;;;;;;;31.13;19.38;;;19.50;93.80;;;;;;5054841;28;20557;-85
2021/07/13 02:09:27;;;;;;;31.55;17.98;;;19.60;93.80;;;;;;5055924;28;20157;-85
2021/07/13 02:11:55;;;;;;;37.33;18.17;;;19.60;93.80;;;;;;5055954;28;20218;-86
2021/07/13 02:14:20;;;;;;;35.30;18.92;;;19.50;93.80;;;;;;5054563;28;20200;-86
2021/07/13 02:16:47;;;;;;;36.58;18.83;;;19.50;93.80;;;;;;5055839;28;20193;-86
2021/07/13 02:19:13;;;;;;;34.65;18.45;;;19.50;93.80;;;;;;5054600;28;20199;-86
2021/07/13 02:21:39;;;;;;;38.00;18.50;;;19.50;93.80;;;;;;5037941;28;20690;-86
2021/07/13 02:24:05;;;;;;;39.45;18.65;;;19.50;93.70;;;;;;5055930;28;20658;-86
2021/07/13 02:26:42;;;;;;;37.90;17.15;;;19.50;93.70;;;;;;5037774;28;20282;-86
2021/07/13 02:29:29;;;;;;;41.70;17.35;;;19.50;93.60;;;;;;5055631;28;20167;-86
2021/07/13 02:31:59;;;;;;;41.10;16.98;;;19.50;93.60;;;;;;5037750;28;20179;-86
2021/07/13 02:34:30;;;;;;;39.63;17.80;;;19.50;93.60;;;;;;5055663;28;20210;-85
2021/07/13 02:36:59;;;;;;;36.58;17.48;;;19.40;93.60;;;;;;5055552;28;20168;-85
2021/07/13 02:39:26;;;;;;;43.33;18.10;;;19.40;93.60;;;;;;5055450;28;20182;-86
2021/07/13 02:41:53;;;;;;;43.80;17.15;;;19.40;93.50;;;;;;5054140;28;20176;-85
2021/07/13 02:44:20;;;;;;;45.35;17.25;;;19.30;93.50;;;;;;5055335;28;20191;-85
2021/07/13 02:46:47;;;;;;;43.42;17.42;;;19.30;93.60;;;;;;5054088;28;20229;-85
2021/07/13 02:49:30;;;;;;;43.55;18.38;;;19.30;93.60;;;;;;5053513;28;20620;-85
2021/07/13 02:51:58;;;;;;;45.75;16.83;;;19.30;93.60;;;;;;5054018;28;20183;-86
2021/07/13 02:54:27;;;;;;;47.05;16.92;;;19.20;93.30;;;;;;5054928;28;20214;-86
2021/07/13 02:56:56;;;;;;;36.63;17.42;;;19.20;93.30;;;;;;5055160;28;20159;-85
2021/07/13 02:59:24;;;;;;;57.70;19.02;;;19.20;93.40;;;;;;5055014;28;20560;-85
2021/07/13 03:01:50;;;;;;;42.75;18.52;;;19.10;93.40;;;;;;5053758;28;20167;-85
2021/07/13 03:04:17;;;;;;;46.67;19.63;;;19.00;93.50;;;;;;5054983;28;20713;-86
2021/07/13 03:06:43;;;;;;;38.75;19.13;;;19.00;93.60;;;;;;5053678;28;20179;-86
2021/07/13 03:09:11;;;;;;;41.72;18.90;;;19.00;93.60;;;;;;5054916;28;20200;-85
2021/07/13 03:11:36;;;;;;;46.75;19.90;;;18.90;93.50;;;;;;5036970;28;20206;-85
2021/07/13 03:14:03;;;;;;;50.53;19.77;;;18.90;93.70;;;;;;5055009;28;20168;-85
2021/07/13 03:16:33;;;;;;;36.00;19.33;;;18.90;93.80;;;;;;5053476;28;20179;-86
2021/07/13 03:18:59;;;;;;;40.95;21.05;;;18.90;93.80;;;;;;5053452;28;20184;-86
2021/07/13 03:21:28;;;;;;;38.45;20.88;;;19.00;93.80;;;;;;5036868;28;20202;-86
2021/07/13 03:23:59;;;;;;;44.20;22.10;;;19.00;93.80;;;;;;5054619;28;20195;-85
2021/07/13 03:26:31;;;;;;;47.63;22.15;;;19.00;93.90;;;;;;5036749;28;20168;-85
2021/07/13 03:28:58;;;;;;;45.05;20.98;;;19.00;93.90;;;;;;5053386;28;20183;-85
2021/07/13 03:31:26;;;;;;;37.25;21.23;;;19.00;93.90;;;;;;5054408;28;20200;-86
2021/07/13 03:33:53;;;;;;;41.15;20.25;;;19.00;93.90;;;;;;5053170;28;20176;-86
2021/07/13 03:36:19;;;;;;;37.15;19.05;;;18.90;93.70;;;;;;5053008;28;20192;-86
2021/07/13 03:38:45;;;;;;;37.15;19.23;;;18.80;93.60;;;;;;5036447;28;20183;-86
2021/07/13 03:41:12;;;;;;;40.78;21.52;;;18.70;93.80;;;;;;5054304;28;20168;-86
2021/07/13 03:43:38;;;;;;;46.40;21.83;;;18.70;93.90;;;;;;5036346;28;20259;-85
2021/07/13 03:46:03;;;;;;;41.72;22.45;;;18.70;94.00;;;;;;5036289;28;20290;-85
2021/07/13 03:48:29;;;;;;;44.05;23.10;;;18.80;94.10;;;;;;5036245;28;20670;-85
2021/07/13 03:50:55;;;;;;;52.17;23.27;;;18.70;94.10;;;;;;5053961;28;20200;-85
2021/07/13 03:53:21;;;;;;;50.35;24.33;;;18.80;94.20;;;;;;5053962;28;20168;-85
2021/07/13 03:55:46;;;;;;;55.97;25.63;;;18.80;94.20;;;;;;5035960;28;20215;-85
2021/07/13 03:58:12;;;;;;;42.63;26.95;;;18.90;94.40;;;;;;5053150;28;20176;-85
2021/07/13 04:00:38;;;;;;;58.03;28.38;;;18.90;94.50;;;;;;5053152;28;20172;-85
2021/07/13 04:03:03;;;;;;;43.80;31.30;;;19.10;94.70;;;;;;5035983;28;20186;-85
2021/07/13 04:05:29;;;;;;;50.22;33.20;;;19.20;94.80;;;;;;5035990;28;20203;-85
2021/07/13 04:07:55;;;;;;;51.58;33.55;;;19.20;94.80;;;;;;5053804;28;20570;-85
2021/07/13 04:10:21;;;;;;;49.78;34.13;;;19.30;94.80;;;;;;5052424;28;20210;-85
2021/07/13 04:12:47;;;;;;;58.83;35.60;;;19.30;94.90;;;;;;5052394;28;20175;-85
2021/07/13 04:15:13;;;;;;;49.45;35.55;;;19.40;94.90;;;;;;5053746;28;20208;-85
2021/07/13 04:17:39;;;;;;;60.83;36.95;;;19.40;94.90;;;;;;5035730;28;20184;-85
2021/07/13 04:20:07;;;;;;;54.00;36.40;;;19.50;94.90;;;;;;5053588;28;20176;-85
2021/07/13 04:22:33;;;;;;;57.10;37.22;;;19.50;94.90;;;;;;5053545;28;20670;-86
2021/07/13 04:24:58;;;;;;;62.88;37.92;;;19.50;95.00;;;;;;5053423;28;20199;-86
2021/07/13 04:27:24;;;;;;;65.95;37.33;;;19.60;95.00;;;;;;5035675;28;20187;-86
2021/07/13 04:29:51;;;;;;;56.60;37.10;;;19.60;95.00;;;;;;5053373;28;20199;-86
2021/07/13 04:32:17;;;;;;;56.30;36.38;;;19.70;95.00;;;;;;5035626;28;20172;-86
2021/07/13 04:34:42;;;;;;;57.40;38.42;;;19.70;95.00;;;;;;5053302;28;20226;-86
2021/07/13 04:37:08;;;;;;;58.35;39.08;;;19.70;94.90;;;;;;5053596;28;20207;-85
2021/07/13 04:39:34;;;;;;;52.72;39.15;;;19.70;95.00;;;;;;5052107;28;20643;-85
2021/07/13 04:41:59;;;;;;;60.80;39.83;;;19.70;95.00;;;;;;5053323;28;20191;-86
2021/07/13 04:44:25;;;;;;;57.22;38.83;;;19.70;94.90;;;;;;5051951;28;20192;-86
2021/07/13 04:46:53;;;;;;;53.42;37.13;;;19.70;94.90;;;;;;5052006;28;20175;-86
2021/07/13 04:49:19;;;;;;;62.38;38.72;;;19.70;94.90;;;;;;5035372;28;20169;-86
2021/07/13 04:51:44;;;;;;;61.30;40.22;;;19.70;94.90;;;;;;5035284;28;20204;-86
2021/07/13 04:54:10;;;;;;;57.70;40.15;;;19.70;94.90;;;;;;5051671;28;20221;-86
2021/07/13 04:56:36;;;;;;;57.67;37.47;;;19.70;94.80;;;;;;5053051;28;20176;-86
2021/07/13 04:59:02;;;;;;;59.35;39.70;;;19.80;94.90;;;;;;5051859;28;20578;-85
2021/07/13 05:01:28;;;;;;;59.60;39.10;;;19.90;94.90;;;;;;5052989;28;20176;-86
2021/07/13 05:03:54;;;;;;;52.47;38.63;;;19.90;94.90;;;;;;5051809;28;20317;-86
2021/07/13 05:06:20;;;;;;;60.53;39.30;;;19.90;94.80;;;;;;5035144;28;20282;-85
2021/07/13 05:08:46;;;;;;;61.58;37.63;;;19.90;94.80;;;;;;5052888;28;20662;-85
2021/07/13 05:11:11;;;;;;;57.78;37.70;;;19.90;94.70;;;;;;5036173;28;20203;-85
2021/07/13 05:13:37;;;;;;;54.58;37.38;;;20.00;94.70;;;;;;5039212;28;20169;-85
2021/07/13 05:16:03;;;;;;;56.45;38.40;;;19.90;94.60;;;;;;5056115;28;20283;-86
2021/07/13 05:18:29;;;;;;;48.10;34.75;;;20.00;94.50;;;;;;5056904;28;20640;-85
2021/07/13 05:21:00;;;;;;;47.35;34.67;;;20.00;94.50;;;;;;5057032;28;20680;-85
2021/07/13 05:23:26;;;;;;;54.58;36.95;;;19.90;94.30;;;;;;5055708;28;20172;-85
2021/07/13 05:25:52;;;;;;;50.90;36.17;;;20.00;94.40;;;;;;5038942;28;20206;-85
2021/07/13 05:28:18;;;;;;;45.45;34.42;;;20.10;94.30;;;;;;5055596;28;20218;-86
2021/07/13 05:30:45;;;;;;;42.15;31.80;;;20.10;94.20;;;;;;5055499;28;20200;-86
2021/07/13 05:33:12;;;;;;;43.58;34.40;;;20.10;94.10;;;;;;5057013;28;20172;-86
2021/07/13 05:35:38;;;;;;;44.42;33.05;;;20.20;94.10;;;;;;5055239;28;20202;-86
2021/07/13 05:38:04;;;;;;;42.78;33.90;;;20.20;94.10;;;;;;5038763;28;20267;-86
2021/07/13 05:40:30;;;;;;;45.25;31.75;;;20.20;93.90;;;;;;5055312;28;20176;-86
2021/07/13 05:42:56;;;;;;;42.53;31.13;;;20.30;93.90;;;;;;5038673;28;20560;-86
2021/07/13 05:45:22;;;;;;;35.88;29.60;;;20.30;93.90;;;;;;5038588;28;20211;-86
2021/07/13 05:47:48;;;;;;;36.60;27.63;;;20.30;93.80;;;;;;5056414;28;20540;-86
2021/07/13 05:50:15;;;;;;;34.28;27.40;;;20.30;93.60;;;;;;5056523;28;20219;-86
2021/07/13 05:52:41;;;;;;;34.63;28.33;;;20.40;93.50;;;;;;5056331;28;20210;-86
2021/07/13 05:55:08;;;;;;;31.08;26.58;;;20.50;93.50;;;;;;5054858;28;20210;-86
2021/07/13 05:57:34;;;;;;;31.02;26.45;;;20.60;93.30;;;;;;5055222;28;20210;-86
2021/07/13 05:59:59;;;;;;;37.78;27.55;;;20.50;92.90;;;;;;5038299;28;20623;-86
2021/07/13 06:02:25;;;;;;;30.98;24.92;;;20.60;93.00;;;;;;5056501;28;20172;-86
2021/07/13 06:04:51;;;;;;;33.00;25.95;;;20.70;92.80;;;;;;5056305;28;20691;-86
2021/07/13 06:07:17;;;;;;;28.92;25.85;;;20.70;92.70;;;;;;5056022;28;20215;-85
2021/07/13 06:09:43;;;;;;;30.20;26.15;;;20.70;92.50;;;;;;5055862;28;20214;-86
2021/07/13 06:12:09;;;;;;;27.55;24.42;;;20.80;92.50;;;;;;5038124;28;20259;-86
2021/07/13 06:14:36;;;;;;;28.13;23.15;;;20.90;91.90;;;;;;5056227;28;20188;-86
2021/07/13 06:17:06;;;;;;;29.38;23.35;;;21.00;91.50;;;;;;5056016;28;20219;-86
2021/07/13 06:19:33;;;;;;;27.13;23.40;;;21.00;91.30;;;;;;5038268;28;20707;-86
2021/07/13 06:21:59;;;;;;;28.15;22.92;;;20.90;91.10;;;;;;5055789;28;20203;-86
2021/07/13 06:24:24;;;;;;;25.98;23.23;;;21.00;91.10;;;;;;5036968;28;20199;-86
2021/07/13 06:26:50;;;;;;;27.50;22.83;;;21.10;90.50;;;;;;5054442;28;20176;-86
2021/07/13 06:29:15;;;;;;;23.30;21.02;;;21.20;91.20;;;;;;5055652;28;20641;-86
2021/07/13 06:31:41;;;;;;;23.73;21.38;;;21.20;90.50;;;;;;5054319;28;20603;-86
2021/07/13 06:34:07;;;;;;;25.58;21.65;;;21.20;90.30;;;;;;5055559;28;20254;-86
2021/07/13 06:36:32;;;;;;;22.80;20.40;;;21.30;90.70;;;;;;5054303;28;20211;-86
2021/07/13 06:38:58;;;;;;;30.63;22.27;;;21.30;90.40;;;;;;5054586;28;20176;-86
2021/07/13 06:41:24;;;;;;;24.17;19.95;;;21.20;90.10;;;;;;5054151;28;20176;-86
2021/07/13 06:43:50;;;;;;;24.00;21.45;;;21.30;90.10;;;;;;5037499;28;20709;-86
2021/07/13 06:46:15;;;;;;;25.25;20.85;;;21.40;90.10;;;;;;5055298;28;20199;-86
2021/07/13 06:48:41;;;;;;;23.23;20.45;;;21.40;89.80;;;;;;5055365;28;20172;-85
2021/07/13 06:51:06;;;;;;;30.20;20.67;;;21.30;89.80;;;;;;5037337;28;20219;-85
2021/07/13 06:53:32;;;;;;;24.70;20.23;;;21.40;89.90;;;;;;5037419;28;20640;-85
2021/07/13 06:55:58;;;;;;;23.17;19.92;;;21.40;89.60;;;;;;5055063;28;20211;-85
2021/07/13 06:58:23;;;;;;;24.98;20.02;;;21.40;89.20;;;;;;5055421;28;20207;-85
2021/07/13 07:00:49;;;;;;;24.42;19.60;;;21.40;89.50;;;;;;5055146;28;20713;-85
2021/07/13 07:03:14;;;;;;;23.23;20.33;;;21.40;89.60;;;;;;5037237;28;20322;-85
2021/07/13 07:05:40;;;;;;;23.83;19.27;;;21.40;89.00;;;;;;5037080;28;20230;-85
2021/07/13 07:08:06;;;;;;;21.75;19.60;;;21.50;88.80;;;;;;5054968;28;20172;-85
2021/07/13 07:10:33;;;;;;;22.80;20.15;;;21.60;89.40;;;;;;5054821;28;20567;-86
2021/07/13 07:12:58;;;;;;;22.15;19.85;;;21.70;88.80;;;;;;5053617;28;20317;-85
2021/07/13 07:15:24;;;;;;;21.70;19.40;;;21.80;88.70;;;;;;5037127;28;20739;-85
2021/07/13 07:17:52;;;;;;;20.58;18.48;;;22.00;88.70;;;;;;5054820;28;20172;-85
2021/07/13 07:20:23;;;;;;;21.60;19.35;;;22.20;88.20;;;;;;5036891;28;20203;-85
2021/07/13 07:22:49;;;;;;;20.00;17.98;;;22.20;87.90;;;;;;5054661;28;20182;-85
2021/07/13 07:25:15;;;;;;;25.48;19.42;;;22.40;87.80;;;;;;5054538;28;20254;-86
2021/07/13 07:27:41;;;;;;;19.98;17.88;;;22.40;87.20;;;;;;5053339;28;20730;-86
2021/07/13 07:30:10;;;;;;;23.65;19.33;;;22.40;87.50;;;;;;5054656;28;20664;-86
2021/07/13 07:32:38;;;;;;;22.67;17.95;;;22.30;86.90;;;;;;5054504;28;20235;-85
2021/07/13 07:35:06;;;;;;;19.52;17.60;;;22.30;86.80;;;;;;5053353;28;20602;-85
2021/07/13 07:37:32;;;;;;;24.17;19.60;;;22.40;86.70;;;;;;5053087;28;20176;-86
2021/07/13 07:39:58;;;;;;;23.30;19.25;;;22.60;87.10;;;;;;5053056;28;20176;-86
2021/07/13 07:42:23;;;;;;;21.67;18.38;;;22.80;87.10;;;;;;5054550;28;20536;-86
2021/07/13 07:44:49;;;;;;;19.80;17.85;;;23.00;86.60;;;;;;5036898;28;20203;-86
2021/07/13 07:47:15;;;;;;;19.70;17.40;;;23.20;86.20;;;;;;5036393;28;20187;-86
2021/07/13 07:49:41;;;;;;;19.85;17.73;;;23.40;85.50;;;;;;5052763;28;20176;-86
2021/07/13 07:52:07;;;;;;;19.25;17.42;;;23.50;84.70;;;;;;5052828;28;20517;-86
2021/07/13 07:54:32;;;;;;;21.73;16.90;;;23.50;82.90;;;;;;5053931;28;20215;-86
2021/07/13 07:56:58;;;;;;;21.02;16.48;;;23.40;83.20;;;;;;5054214;28;20254;-87
2021/07/13 07:59:24;;;;;;;17.73;15.88;;;23.50;83.20;;;;;;5054096;28;20234;-86
2021/07/13 08:01:50;;;;;;;22.92;16.38;;;23.70;83.60;;;;;;5053969;28;20176;-86
2021/07/13 08:04:15;;;;;;;18.77;15.55;;;23.70;82.30;;;;;;5035957;28;20234;-86
2021/07/13 08:06:41;;;;;;;17.70;15.68;;;23.80;82.40;;;;;;5054008;28;20176;-86
2021/07/13 08:09:07;;;;;;;19.27;16.58;;;23.90;82.00;;;;;;5054217;28;20270;-86
2021/07/13 08:11:34;;;;;;;18.80;16.80;;;23.80;81.60;;;;;;5035912;28;20250;-86
2021/07/13 08:14:04;;;;;;;21.50;17.65;;;23.70;81.60;;;;;;5052540;28;20289;-86
2021/07/13 08:16:35;;;;;;;20.08;17.92;;;23.80;82.80;;;;;;5035983;28;20210;-86
2021/07/13 08:19:01;;;;;;;18.27;16.50;;;23.80;81.50;;;;;;5053192;28;20160;-87
2021/07/13 08:21:27;;;;;;;20.23;16.58;;;23.80;80.80;;;;;;5052525;28;20552;-86
2021/07/13 08:23:52;;;;;;;20.65;17.08;;;23.70;81.80;;;;;;5035849;28;20714;-86
2021/07/13 08:26:18;;;;;;;18.42;16.55;;;23.90;82.10;;;;;;5053430;28;20192;-86
2021/07/13 08:28:44;;;;;;;18.63;16.65;;;23.90;81.50;;;;;;5052359;28;20640;-86
2021/07/13 08:31:09;;;;;;;18.33;16.52;;;24.10;80.90;;;;;;5035645;28;20291;-86
2021/07/13 08:33:35;;;;;;;17.15;15.43;;;24.10;79.40;;;;;;5035689;28;20182;-86
2021/07/13 08:36:00;;;;;;;15.93;14.52;;;24.30;81.20;;;;;;5052150;28;20214;-86
2021/07/13 08:38:26;;;;;;;17.55;14.63;;;24.30;79.80;;;;;;5035576;28;20175;-86
2021/07/13 08:40:52;;;;;;;16.30;14.52;;;24.50;79.30;;;;;;5052161;28;20180;-87
2021/07/13 08:43:19;;;;;;;18.73;16.95;;;24.50;79.30;;;;;;5052060;28;20176;-85
2021/07/13 08:45:47;;;;;;;19.55;15.43;;;24.50;79.20;;;;;;5034955;28;20540;-86
2021/07/13 08:48:13;;;;;;;16.92;14.70;;;24.60;79.40;;;;;;5053367;28;20171;-86
2021/07/13 08:50:39;;;;;;;19.67;15.02;;;24.70;78.00;;;;;;5053091;28;20358;-86
2021/07/13 08:53:06;;;;;;;16.95;15.15;;;24.80;78.30;;;;;;5053171;28;20207;-86
2021/07/13 08:55:32;;;;;;;17.13;15.07;;;24.90;77.30;;;;;;5051922;28;20286;-86
2021/07/13 08:57:59;;;;;;;16.67;13.52;;;24.80;76.80;;;;;;5053151;28;20556;-86
2021/07/13 09:00:25;;;;;;;16.50;13.65;;;24.70;77.00;;;;;;5035171;28;20758;-86
2021/07/13 09:03:04;;;;;;;15.88;14.20;;;24.70;77.30;;;;;;5053372;28;20260;-86
2021/07/13 09:05:41;;;;;;;16.05;14.50;;;24.90;77.80;;;;;;5035203;28;20199;-86
2021/07/13 09:08:23;;;;;;;18.85;14.23;;;24.90;76.70;;;;;;5051846;28;20171;-86
2021/07/13 09:11:07;;;;;;;17.35;14.57;;;24.80;77.40;;;;;;5052898;28;20215;-86
2021/07/13 09:13:38;;;;;;;14.13;12.65;;;24.80;77.50;;;;;;5053035;28;20164;-86
2021/07/13 09:16:07;;;;;;;14.02;12.60;;;24.70;76.80;;;;;;5052929;28;20184;-86
2021/07/13 09:18:46;;;;;;;14.55;13.07;;;24.60;77.50;;;;;;5051944;28;20176;-86
2021/07/13 09:21:24;;;;;;;15.88;13.63;;;24.50;77.80;;;;;;5051716;28;20180;-86
2021/07/13 09:24:16;;;;;;;15.52;14.13;;;24.50;79.00;;;;;;5051743;28;20171;-86
2021/07/13 09:26:52;;;;;;;14.25;12.80;;;24.70;78.40;;;;;;5052940;28;20156;-86
2021/07/13 09:29:42;;;;;;;14.95;13.45;;;24.70;75.80;;;;;;5035046;28;20175;-86
2021/07/13 09:32:23;;;;;;;16.90;12.90;;;24.90;77.20;;;;;;5052852;28;20153;-86
2021/07/13 09:34:52;;;;;;;14.80;13.20;;;25.10;77.40;;;;;;5052653;28;20188;-86
2021/07/13 09:37:27;;;;;;;16.25;14.65;;;25.40;76.90;;;;;;5052802;28;20247;-86
2021/07/13 09:39:59;;;;;;;13.07;11.93;;;25.50;76.40;;;;;;5051732;28;20191;-86
2021/07/13 09:42:27;;;;;;;12.70;11.52;;;25.50;75.80;;;;;;5034837;28;20659;-86
2021/07/13 09:44:53;;;;;;;14.88;11.40;;;25.60;74.70;;;;;;5052573;28;20281;-86
2021/07/13 09:47:31;;;;;;;14.25;12.90;;;25.70;72.50;;;;;;5052724;28;20169;-86
2021/07/13 09:50:00;;;;;;;15.18;12.57;;;25.80;72.90;;;;;;5052592;28;20204;-86
2021/07/13 09:52:25;;;;;;;15.35;12.32;;;26.00;72.60;;;;;;5034759;28;20172;-87
2021/07/13 09:54:52;;;;;;;11.70;10.70;;;26.00;72.80;;;;;;5052652;28;20290;-86
2021/07/13 09:57:19;;;;;;;12.48;11.27;;;26.00;71.50;;;;;;5052530;28;20176;-86
2021/07/13 09:59:47;;;;;;;12.65;11.38;;;25.80;70.90;;;;;;5056101;28;20164;-86
2021/07/13 10:02:15;;;;;;;11.55;10.45;;;25.70;73.60;;;;;;5056508;28;20666;-86
2021/07/13 10:04:42;;;;;;;12.27;11.13;;;25.70;72.40;;;;;;5054876;28;20196;-86
2021/07/13 10:07:12;;;;;;;12.40;11.02;;;25.90;72.00;;;;;;5056114;28;20179;-86
2021/07/13 10:09:49;;;;;;;11.48;10.25;;;25.90;72.40;;;;;;5055954;28;20247;-86
2021/07/13 10:12:17;;;;;;;11.10;10.00;;;26.10;72.30;;;;;;5056037;28;20654;-86
2021/07/13 10:14:46;;;;;;;12.23;10.88;;;26.10;68.20;;;;;;5056182;28;20188;-86
2021/07/13 10:17:13;;;;;;;11.07;9.38;;;26.10;70.60;;;;;;5038075;28;20172;-86
2021/07/13 10:19:48;;;;;;;11.93;10.30;;;26.00;69.40;;;;;;5054637;28;20180;-86
2021/07/13 10:22:15;;;;;;;12.15;10.00;;;25.80;69.10;;;;;;5056135;28;20227;-86
2021/07/13 10:24:44;;;;;;;10.85;9.90;;;26.10;69.70;;;;;;5055706;28;20667;-86
2021/07/13 10:27:15;;;;;;;10.38;9.38;;;26.30;69.60;;;;;;5055740;28;20275;-86
2021/07/13 10:29:42;;;;;;;10.27;9.27;;;26.30;69.00;;;;;;5054319;28;20176;-86
2021/07/13 10:32:16;;;;;;;10.55;8.93;;;26.30;67.80;;;;;;5037848;28;20655;-86
2021/07/13 10:34:50;;;;;;;9.25;8.43;;;26.10;69.90;;;;;;5055482;28;20675;-86
2021/07/13 10:37:36;;;;;;;9.57;8.68;;;26.20;68.30;;;;;;5055649;28;20187;-86
2021/07/13 10:40:04;;;;;;;9.98;8.98;;;26.50;68.50;;;;;;5055519;28;20183;-86
2021/07/13 10:42:44;;;;;;;9.20;8.32;;;26.70;65.50;;;;;;5037710;28;20180;-87
2021/07/13 10:45:34;;;;;;;10.02;7.75;;;26.80;66.10;;;;;;5054036;28;20204;-87
2021/07/13 10:48:17;;;;;;;9.32;8.43;;;26.70;65.70;;;;;;5036996;28;20648;-87
2021/07/13 10:50:49;;;;;;;8.55;7.80;;;26.40;67.30;;;;;;5055200;28;20191;-86
2021/07/13 10:53:32;;;;;;;8.70;7.88;;;26.20;66.40;;;;;;5055259;28;20169;-86
2021/07/13 10:56:06;;;;;;;7.88;7.18;;;26.40;65.90;;;;;;5053729;28;20215;-86
2021/07/13 10:58:35;;;;;;;8.25;7.45;;;26.80;67.40;;;;;;5055167;28;20680;-86
2021/07/13 11:01:00;;;;;;;8.32;7.60;;;27.00;63.20;;;;;;5037334;28;20655;-86
2021/07/13 11:03:29;;;;;;;9.80;6.97;;;27.20;66.40;;;;;;5037318;28;20178;-86
2021/07/13 11:06:04;;;;;;;7.00;6.40;;;27.40;63.40;;;;;;5055006;28;20622;-87
2021/07/13 11:08:42;;;;;;;8.35;7.50;;;27.40;62.90;;;;;;5037926;28;20164;-88
2021/07/13 11:11:14;;;;;;;7.68;7.03;;;27.60;63.40;;;;;;5037062;28;20282;-88
2021/07/13 11:13:47;;;;;;;8.32;7.35;;;27.70;61.70;;;;;;5037076;28;20218;-88
2021/07/13 11:16:20;;;;;;;7.68;6.97;;;27.70;62.10;;;;;;5053637;28;20242;-88
2021/07/13 11:18:46;;;;;;;8.20;6.50;;;27.90;62.50;;;;;;5053590;28;20652;-88
2021/07/13 11:21:30;;;;;;;7.13;6.30;;;28.20;61.90;;;;;;5036904;28;20203;-88
2021/07/13 11:24:03;;;;;;;7.78;6.13;;;28.10;58.50;;;;;;5054806;28;20164;-88
2021/07/13 11:26:30;;;;;;;7.00;6.40;;;28.10;57.00;;;;;;5036895;28;20164;-88
2021/07/13 11:29:01;;;;;;;6.85;5.68;;;28.30;58.40;;;;;;5054649;28;20172;-88
2021/07/13 11:31:35;;;;;;;7.30;6.70;;;28.50;58.30;;;;;;5054585;28;20179;-88
2021/07/13 11:34:08;;;;;;;8.75;5.85;;;28.40;56.80;;;;;;5054476;28;20167;-88
2021/07/13 11:36:40;;;;;;;9.90;6.20;;;28.40;56.20;;;;;;5053251;28;20541;-88
2021/07/13 11:39:08;;;;;;;6.40;5.80;;;28.70;57.80;;;;;;5054754;28;20152;-88
2021/07/13 11:41:34;;;;;;;7.30;5.82;;;29.00;59.30;;;;;;5053092;28;20573;-88
2021/07/13 11:44:05;;;;;;;5.72;5.22;;;29.00;55.60;;;;;;5054532;28;20222;-88
2021/07/13 11:46:34;;;;;;;6.78;5.93;;;28.60;55.70;;;;;;5054299;28;20159;-87
2021/07/13 11:49:06;;;;;;;6.82;6.13;;;28.00;58.80;;;;;;5053043;28;20184;-87
2021/07/13 11:51:35;;;;;;;7.28;6.43;;;27.70;57.70;;;;;;5054196;28;20180;-86
2021/07/13 11:54:07;;;;;;;10.23;6.25;;;27.80;56.80;;;;;;5052706;28;20245;-86
2021/07/13 11:56:35;;;;;;;7.07;6.40;;;27.70;58.60;;;;;;5052761;28;20249;-86
2021/07/13 11:59:02;;;;;;;6.47;5.97;;;27.30;60.60;;;;;;5036059;28;20172;-86
2021/07/13 12:01:30;;;;;;;6.80;5.95;;;26.90;60.50;;;;;;5053902;28;20196;-86
2021/07/13 12:04:02;;;;;;;6.82;6.13;;;26.90;60.70;;;;;;5052615;28;20183;-86
2021/07/13 12:06:28;;;;;;;7.03;5.90;;;27.10;59.70;;;;;;5053917;28;20218;-86
2021/07/13 12:08:59;;;;;;;7.15;6.45;;;27.50;60.70;;;;;;5035892;28;20640;-86
2021/07/13 12:11:28;;;;;;;7.35;5.68;;;27.80;60.00;;;;;;5035855;28;20180;-86
2021/07/13 12:13:57;;;;;;;6.45;5.88;;;27.90;57.90;;;;;;5053759;28;20190;-86
2021/07/13 12:16:26;;;;;;;8.02;5.93;;;27.70;59.90;;;;;;5053613;28;20566;-86
2021/07/13 12:18:53;;;;;;;6.72;5.75;;;27.30;59.50;;;;;;5053844;28;20215;-86
2021/07/13 12:21:20;;;;;;;6.70;6.18;;;27.30;58.90;;;;;;5035076;28;20211;-86
2021/07/13 12:23:47;;;;;;;5.97;5.47;;;27.40;58.40;;;;;;5053497;28;20165;-86
2021/07/13 12:26:30;;;;;;;6.97;6.38;;;27.30;59.20;;;;;;5035557;28;20202;-86
2021/07/13 12:28:59;;;;;;;6.55;6.05;;;27.20;59.90;;;;;;5035679;28;20169;-86
2021/07/13 12:31:25;;;;;;;6.45;5.90;;;27.00;59.10;;;;;;5053509;28;20222;-86
2021/07/13 12:33:52;;;;;;;8.10;6.55;;;26.90;60.20;;;;;;5052109;28;20250;-86
2021/07/13 12:36:25;;;;;;;6.35;5.85;;;26.70;60.90;;;;;;5052025;28;20203;-86
2021/07/13 12:38:50;;;;;;;8.05;6.40;;;26.70;63.20;;;;;;5052089;28;20267;-86